sensor_id;sensor_type;location;lat;lon;timestamp;P1;durP1;ratioP1;P2;durP2;ratioP2
21046;SDS011;10682;50.874;3.656;2023-09-08T00:00:57;10.52;;;6.18;;
21046;SDS011;10682;50.874;3.656;2023-09-08T00:03:25;10.02;;;7.05;;
21046;SDS011;10682;50.874;3.656;2023-09-08T00:05:55;12.05;;;7.65;;
21046;SDS011;10682;50.874;3.656;2023-09-08T00:08:22;10.43;;;7.10;;
21046;SDS011;10682;50.874;3.656;2023-09-08T00:10:52;12.30;;;7.40;;
21046;SDS011;10682;50.874;3.656;2023-09-08T00:13:20;8.82;;;6.53;;
21046;SDS011;10682;50.874;3.656;2023-09-08T00:15:47;10.20;;;6.82;;
21046;SDS011;10682;50.874;3.656;2023-09-08T00:18:17;9.82;;;7.10;;
21046;SDS011;10682;50.874;3.656;2023-09-08T00:20:44;11.52;;;6.65;;
21046;SDS011;10682;50.874;3.656;2023-09-08T00:23:14;10.60;;;7.10;;
21046;SDS011;10682;50.874;3.656;2023-09-08T00:25:43;10.18;;;7.30;;
21046;SDS011;10682;50.874;3.656;2023-09-08T00:28:10;11.57;;;7.43;;
21046;SDS011;10682;50.874;3.656;2023-09-08T00:30:39;10.68;;;7.60;;
21046;SDS011;10682;50.874;3.656;2023-09-08T00:33:08;13.05;;;8.02;;
21046;SDS011;10682;50.874;3.656;2023-09-08T00:35:38;12.25;;;8.02;;
21046;SDS011;10682;50.874;3.656;2023-09-08T00:38:05;11.77;;;7.40;;
21046;SDS011;10682;50.874;3.656;2023-09-08T00:40:33;11.10;;;8.05;;
21046;SDS011;10682;50.874;3.656;2023-09-08T00:43:00;11.93;;;8.10;;
21046;SDS011;10682;50.874;3.656;2023-09-08T00:45:32;14.25;;;8.20;;
21046;SDS011;10682;50.874;3.656;2023-09-08T00:48:07;14.50;;;8.23;;
21046;SDS011;10682;50.874;3.656;2023-09-08T00:50:35;16.75;;;8.35;;
21046;SDS011;10682;50.874;3.656;2023-09-08T00:53:05;13.82;;;7.78;;
21046;SDS011;10682;50.874;3.656;2023-09-08T00:55:34;10.73;;;7.50;;
21046;SDS011;10682;50.874;3.656;2023-09-08T00:58:01;11.60;;;7.75;;
21046;SDS011;10682;50.874;3.656;2023-09-08T01:00:30;12.40;;;7.78;;
21046;SDS011;10682;50.874;3.656;2023-09-08T01:03:00;11.38;;;6.43;;
21046;SDS011;10682;50.874;3.656;2023-09-08T01:05:30;12.13;;;7.20;;
21046;SDS011;10682;50.874;3.656;2023-09-08T01:07:57;11.85;;;7.28;;
21046;SDS011;10682;50.874;3.656;2023-09-08T01:10:27;7.97;;;6.22;;
21046;SDS011;10682;50.874;3.656;2023-09-08T01:12:54;11.75;;;7.78;;
21046;SDS011;10682;50.874;3.656;2023-09-08T01:15:22;11.93;;;7.10;;
21046;SDS011;10682;50.874;3.656;2023-09-08T01:17:51;11.23;;;8.05;;
21046;SDS011;10682;50.874;3.656;2023-09-08T01:20:25;12.30;;;8.32;;
21046;SDS011;10682;50.874;3.656;2023-09-08T01:23:34;11.68;;;8.65;;
21046;SDS011;10682;50.874;3.656;2023-09-08T01:26:25;10.10;;;7.68;;
21046;SDS011;10682;50.874;3.656;2023-09-08T01:28:57;11.13;;;7.95;;
21046;SDS011;10682;50.874;3.656;2023-09-08T01:31:28;11.93;;;7.50;;
21046;SDS011;10682;50.874;3.656;2023-09-08T01:33:56;11.88;;;8.10;;
21046;SDS011;10682;50.874;3.656;2023-09-08T01:36:23;10.90;;;7.20;;
21046;SDS011;10682;50.874;3.656;2023-09-08T01:38:52;7.38;;;5.85;;
21046;SDS011;10682;50.874;3.656;2023-09-08T01:41:20;8.52;;;6.43;;
21046;SDS011;10682;50.874;3.656;2023-09-08T01:43:49;11.90;;;6.55;;
21046;SDS011;10682;50.874;3.656;2023-09-08T01:46:16;7.70;;;4.43;;
21046;SDS011;10682;50.874;3.656;2023-09-08T01:48:44;6.00;;;4.60;;
21046;SDS011;10682;50.874;3.656;2023-09-08T01:51:12;7.03;;;4.40;;
21046;SDS011;10682;50.874;3.656;2023-09-08T01:53:39;8.88;;;5.93;;
21046;SDS011;10682;50.874;3.656;2023-09-08T01:56:06;10.10;;;7.13;;
21046;SDS011;10682;50.874;3.656;2023-09-08T01:58:34;10.65;;;7.57;;
21046;SDS011;10682;50.874;3.656;2023-09-08T02:01:01;9.77;;;6.60;;
21046;SDS011;10682;50.874;3.656;2023-09-08T02:03:32;11.52;;;8.27;;
21046;SDS011;10682;50.874;3.656;2023-09-08T02:06:01;11.98;;;8.50;;
21046;SDS011;10682;50.874;3.656;2023-09-08T02:08:30;12.43;;;7.80;;
21046;SDS011;10682;50.874;3.656;2023-09-08T02:10:59;13.80;;;8.00;;
21046;SDS011;10682;50.874;3.656;2023-09-08T02:13:26;16.02;;;8.15;;
21046;SDS011;10682;50.874;3.656;2023-09-08T02:15:54;11.20;;;7.32;;
21046;SDS011;10682;50.874;3.656;2023-09-08T02:18:21;11.52;;;6.60;;
21046;SDS011;10682;50.874;3.656;2023-09-08T02:20:51;11.38;;;7.55;;
21046;SDS011;10682;50.874;3.656;2023-09-08T02:23:18;10.00;;;7.07;;
21046;SDS011;10682;50.874;3.656;2023-09-08T02:25:45;11.60;;;7.78;;
21046;SDS011;10682;50.874;3.656;2023-09-08T02:28:13;12.32;;;8.73;;
21046;SDS011;10682;50.874;3.656;2023-09-08T02:30:40;13.55;;;8.32;;
21046;SDS011;10682;50.874;3.656;2023-09-08T02:33:08;8.93;;;6.75;;
21046;SDS011;10682;50.874;3.656;2023-09-08T02:35:40;10.98;;;6.43;;
21046;SDS011;10682;50.874;3.656;2023-09-08T02:38:07;10.48;;;6.53;;
21046;SDS011;10682;50.874;3.656;2023-09-08T02:40:35;9.00;;;5.38;;
21046;SDS011;10682;50.874;3.656;2023-09-08T02:43:04;7.47;;;5.53;;
21046;SDS011;10682;50.874;3.656;2023-09-08T02:45:31;7.53;;;5.50;;
21046;SDS011;10682;50.874;3.656;2023-09-08T02:48:01;9.65;;;6.47;;
21046;SDS011;10682;50.874;3.656;2023-09-08T02:50:29;9.95;;;6.47;;
21046;SDS011;10682;50.874;3.656;2023-09-08T02:52:56;7.88;;;5.97;;
21046;SDS011;10682;50.874;3.656;2023-09-08T02:55:24;8.63;;;5.70;;
21046;SDS011;10682;50.874;3.656;2023-09-08T02:57:51;6.82;;;5.30;;
21046;SDS011;10682;50.874;3.656;2023-09-08T03:00:22;8.73;;;6.15;;
21046;SDS011;10682;50.874;3.656;2023-09-08T03:02:53;9.10;;;6.72;;
21046;SDS011;10682;50.874;3.656;2023-09-08T03:05:22;10.38;;;6.28;;
21046;SDS011;10682;50.874;3.656;2023-09-08T03:07:49;11.88;;;8.18;;
21046;SDS011;10682;50.874;3.656;2023-09-08T03:10:16;9.40;;;7.35;;
21046;SDS011;10682;50.874;3.656;2023-09-08T03:12:44;8.88;;;6.78;;
21046;SDS011;10682;50.874;3.656;2023-09-08T03:15:11;10.27;;;7.05;;
21046;SDS011;10682;50.874;3.656;2023-09-08T03:17:39;11.95;;;6.80;;
21046;SDS011;10682;50.874;3.656;2023-09-08T03:20:07;9.38;;;6.00;;
21046;SDS011;10682;50.874;3.656;2023-09-08T03:22:38;10.13;;;6.80;;
21046;SDS011;10682;50.874;3.656;2023-09-08T03:25:06;8.50;;;6.35;;
21046;SDS011;10682;50.874;3.656;2023-09-08T03:27:34;9.32;;;7.10;;
21046;SDS011;10682;50.874;3.656;2023-09-08T03:30:01;11.48;;;7.57;;
21046;SDS011;10682;50.874;3.656;2023-09-08T03:32:29;12.18;;;8.07;;
21046;SDS011;10682;50.874;3.656;2023-09-08T03:34:57;13.23;;;7.20;;
21046;SDS011;10682;50.874;3.656;2023-09-08T03:37:25;9.60;;;7.05;;
21046;SDS011;10682;50.874;3.656;2023-09-08T03:39:52;14.32;;;7.82;;
21046;SDS011;10682;50.874;3.656;2023-09-08T03:42:27;10.63;;;6.85;;
21046;SDS011;10682;50.874;3.656;2023-09-08T03:45:01;11.00;;;7.65;;
21046;SDS011;10682;50.874;3.656;2023-09-08T03:47:29;9.93;;;7.03;;
21046;SDS011;10682;50.874;3.656;2023-09-08T03:50:00;9.43;;;6.55;;
21046;SDS011;10682;50.874;3.656;2023-09-08T03:52:34;18.73;;;7.32;;
21046;SDS011;10682;50.874;3.656;2023-09-08T03:55:01;11.88;;;7.70;;
21046;SDS011;10682;50.874;3.656;2023-09-08T03:57:30;11.20;;;7.15;;
21046;SDS011;10682;50.874;3.656;2023-09-08T03:59:58;15.60;;;8.13;;
21046;SDS011;10682;50.874;3.656;2023-09-08T04:02:29;11.10;;;7.63;;
21046;SDS011;10682;50.874;3.656;2023-09-08T04:04:59;13.25;;;7.68;;
21046;SDS011;10682;50.874;3.656;2023-09-08T04:07:27;12.82;;;7.50;;
21046;SDS011;10682;50.874;3.656;2023-09-08T04:09:56;15.32;;;9.05;;
21046;SDS011;10682;50.874;3.656;2023-09-08T04:12:24;14.70;;;8.50;;
21046;SDS011;10682;50.874;3.656;2023-09-08T04:14:53;14.25;;;8.85;;
21046;SDS011;10682;50.874;3.656;2023-09-08T04:17:22;15.55;;;9.15;;
21046;SDS011;10682;50.874;3.656;2023-09-08T04:19:52;13.63;;;8.07;;
21046;SDS011;10682;50.874;3.656;2023-09-08T04:22:20;13.07;;;8.15;;
21046;SDS011;10682;50.874;3.656;2023-09-08T04:24:48;19.52;;;9.00;;
21046;SDS011;10682;50.874;3.656;2023-09-08T04:27:16;10.70;;;7.75;;
21046;SDS011;10682;50.874;3.656;2023-09-08T04:29:44;10.63;;;8.10;;
21046;SDS011;10682;50.874;3.656;2023-09-08T04:32:12;12.80;;;8.18;;
21046;SDS011;10682;50.874;3.656;2023-09-08T04:34:40;10.88;;;8.20;;
21046;SDS011;10682;50.874;3.656;2023-09-08T04:37:08;9.70;;;7.03;;
21046;SDS011;10682;50.874;3.656;2023-09-08T04:39:36;13.93;;;7.30;;
21046;SDS011;10682;50.874;3.656;2023-09-08T04:42:06;11.65;;;7.30;;
21046;SDS011;10682;50.874;3.656;2023-09-08T04:44:34;12.35;;;7.03;;
21046;SDS011;10682;50.874;3.656;2023-09-08T04:47:02;13.95;;;8.23;;
21046;SDS011;10682;50.874;3.656;2023-09-08T04:49:33;11.80;;;7.95;;
21046;SDS011;10682;50.874;3.656;2023-09-08T04:52:00;18.17;;;9.10;;
21046;SDS011;10682;50.874;3.656;2023-09-08T04:54:29;15.15;;;8.38;;
21046;SDS011;10682;50.874;3.656;2023-09-08T04:56:56;15.10;;;9.23;;
21046;SDS011;10682;50.874;3.656;2023-09-08T04:59:44;12.40;;;9.15;;
21046;SDS011;10682;50.874;3.656;2023-09-08T05:02:11;16.52;;;9.75;;
21046;SDS011;10682;50.874;3.656;2023-09-08T05:04:38;13.50;;;9.57;;
21046;SDS011;10682;50.874;3.656;2023-09-08T05:07:06;17.70;;;9.70;;
21046;SDS011;10682;50.874;3.656;2023-09-08T05:09:33;14.45;;;9.23;;
21046;SDS011;10682;50.874;3.656;2023-09-08T05:12:01;15.20;;;9.68;;
21046;SDS011;10682;50.874;3.656;2023-09-08T05:14:28;17.15;;;9.82;;
21046;SDS011;10682;50.874;3.656;2023-09-08T05:16:58;18.15;;;9.45;;
21046;SDS011;10682;50.874;3.656;2023-09-08T05:19:25;20.00;;;10.48;;
21046;SDS011;10682;50.874;3.656;2023-09-08T05:21:56;13.77;;;8.90;;
21046;SDS011;10682;50.874;3.656;2023-09-08T05:24:23;15.30;;;9.15;;
21046;SDS011;10682;50.874;3.656;2023-09-08T05:26:52;13.68;;;9.07;;
21046;SDS011;10682;50.874;3.656;2023-09-08T05:29:20;11.63;;;7.72;;
21046;SDS011;10682;50.874;3.656;2023-09-08T05:31:50;14.98;;;7.80;;
21046;SDS011;10682;50.874;3.656;2023-09-08T05:34:18;15.38;;;8.75;;
21046;SDS011;10682;50.874;3.656;2023-09-08T05:36:45;17.73;;;9.43;;
21046;SDS011;10682;50.874;3.656;2023-09-08T05:39:16;17.20;;;8.88;;
21046;SDS011;10682;50.874;3.656;2023-09-08T05:41:46;16.58;;;9.05;;
21046;SDS011;10682;50.874;3.656;2023-09-08T05:44:16;15.60;;;8.63;;
21046;SDS011;10682;50.874;3.656;2023-09-08T05:46:45;17.92;;;9.07;;
21046;SDS011;10682;50.874;3.656;2023-09-08T05:49:12;22.25;;;10.70;;
21046;SDS011;10682;50.874;3.656;2023-09-08T05:51:40;21.75;;;11.02;;
21046;SDS011;10682;50.874;3.656;2023-09-08T05:54:09;32.58;;;18.10;;
21046;SDS011;10682;50.874;3.656;2023-09-08T05:56:39;42.35;;;22.45;;
21046;SDS011;10682;50.874;3.656;2023-09-08T05:59:06;29.80;;;17.75;;
21046;SDS011;10682;50.874;3.656;2023-09-08T06:01:36;28.70;;;15.60;;
21046;SDS011;10682;50.874;3.656;2023-09-08T06:04:03;21.48;;;14.77;;
21046;SDS011;10682;50.874;3.656;2023-09-08T06:06:31;23.00;;;14.23;;
21046;SDS011;10682;50.874;3.656;2023-09-08T06:09:03;20.40;;;13.85;;
21046;SDS011;10682;50.874;3.656;2023-09-08T06:11:35;22.92;;;14.77;;
21046;SDS011;10682;50.874;3.656;2023-09-08T06:14:05;22.55;;;15.05;;
21046;SDS011;10682;50.874;3.656;2023-09-08T06:16:33;23.88;;;13.93;;
21046;SDS011;10682;50.874;3.656;2023-09-08T06:19:00;25.02;;;14.23;;
21046;SDS011;10682;50.874;3.656;2023-09-08T06:21:29;18.92;;;13.35;;
21046;SDS011;10682;50.874;3.656;2023-09-08T06:23:58;18.45;;;12.57;;
21046;SDS011;10682;50.874;3.656;2023-09-08T06:26:26;23.90;;;13.82;;
21046;SDS011;10682;50.874;3.656;2023-09-08T06:28:54;20.92;;;14.15;;
21046;SDS011;10682;50.874;3.656;2023-09-08T06:31:22;22.50;;;14.50;;
21046;SDS011;10682;50.874;3.656;2023-09-08T06:33:49;23.85;;;14.40;;
21046;SDS011;10682;50.874;3.656;2023-09-08T06:36:19;18.42;;;13.77;;
21046;SDS011;10682;50.874;3.656;2023-09-08T06:38:46;20.27;;;14.30;;
21046;SDS011;10682;50.874;3.656;2023-09-08T06:41:14;20.55;;;14.25;;
21046;SDS011;10682;50.874;3.656;2023-09-08T06:43:43;19.08;;;12.75;;
21046;SDS011;10682;50.874;3.656;2023-09-08T06:46:11;21.17;;;12.93;;
21046;SDS011;10682;50.874;3.656;2023-09-08T06:48:38;21.08;;;13.88;;
21046;SDS011;10682;50.874;3.656;2023-09-08T06:51:06;24.42;;;14.18;;
21046;SDS011;10682;50.874;3.656;2023-09-08T06:53:33;20.20;;;13.25;;
21046;SDS011;10682;50.874;3.656;2023-09-08T06:56:01;18.45;;;13.32;;
21046;SDS011;10682;50.874;3.656;2023-09-08T06:58:28;19.88;;;13.18;;
21046;SDS011;10682;50.874;3.656;2023-09-08T07:00:56;19.27;;;11.95;;
21046;SDS011;10682;50.874;3.656;2023-09-08T07:03:25;19.27;;;11.00;;
21046;SDS011;10682;50.874;3.656;2023-09-08T07:06:16;16.85;;;10.65;;
21046;SDS011;10682;50.874;3.656;2023-09-08T07:08:44;18.33;;;10.75;;
21046;SDS011;10682;50.874;3.656;2023-09-08T07:11:11;20.98;;;11.55;;
21046;SDS011;10682;50.874;3.656;2023-09-08T07:13:42;17.48;;;10.52;;
21046;SDS011;10682;50.874;3.656;2023-09-08T07:16:11;19.08;;;12.05;;
21046;SDS011;10682;50.874;3.656;2023-09-08T07:18:38;18.83;;;11.25;;
21046;SDS011;10682;50.874;3.656;2023-09-08T07:21:07;23.25;;;11.77;;
21046;SDS011;10682;50.874;3.656;2023-09-08T07:23:36;15.52;;;11.00;;
21046;SDS011;10682;50.874;3.656;2023-09-08T07:26:05;16.60;;;10.90;;
21046;SDS011;10682;50.874;3.656;2023-09-08T07:28:32;18.20;;;10.80;;
21046;SDS011;10682;50.874;3.656;2023-09-08T07:31:01;19.23;;;10.57;;
21046;SDS011;10682;50.874;3.656;2023-09-08T07:33:30;19.38;;;9.73;;
21046;SDS011;10682;50.874;3.656;2023-09-08T07:35:58;17.05;;;9.13;;
21046;SDS011;10682;50.874;3.656;2023-09-08T07:38:34;15.02;;;8.77;;
21046;SDS011;10682;50.874;3.656;2023-09-08T07:41:06;12.75;;;7.93;;
21046;SDS011;10682;50.874;3.656;2023-09-08T07:43:34;16.85;;;8.30;;
21046;SDS011;10682;50.874;3.656;2023-09-08T07:46:07;15.98;;;8.70;;
21046;SDS011;10682;50.874;3.656;2023-09-08T07:48:34;16.67;;;7.93;;
21046;SDS011;10682;50.874;3.656;2023-09-08T07:51:02;11.40;;;8.05;;
21046;SDS011;10682;50.874;3.656;2023-09-08T07:53:29;14.30;;;7.80;;
21046;SDS011;10682;50.874;3.656;2023-09-08T07:56:00;16.48;;;8.98;;
21046;SDS011;10682;50.874;3.656;2023-09-08T07:58:28;10.18;;;7.50;;
21046;SDS011;10682;50.874;3.656;2023-09-08T08:00:56;14.93;;;7.85;;
21046;SDS011;10682;50.874;3.656;2023-09-08T08:03:26;16.40;;;8.13;;
21046;SDS011;10682;50.874;3.656;2023-09-08T08:05:53;17.85;;;8.10;;
21046;SDS011;10682;50.874;3.656;2023-09-08T08:08:22;13.48;;;7.10;;
21046;SDS011;10682;50.874;3.656;2023-09-08T08:10:49;16.17;;;7.35;;
21046;SDS011;10682;50.874;3.656;2023-09-08T08:13:16;14.55;;;8.27;;
21046;SDS011;10682;50.874;3.656;2023-09-08T08:15:44;13.45;;;8.15;;
21046;SDS011;10682;50.874;3.656;2023-09-08T08:18:15;14.73;;;7.68;;
21046;SDS011;10682;50.874;3.656;2023-09-08T08:20:42;11.18;;;7.50;;
21046;SDS011;10682;50.874;3.656;2023-09-08T08:23:10;10.98;;;7.05;;
21046;SDS011;10682;50.874;3.656;2023-09-08T08:25:37;13.25;;;7.65;;
21046;SDS011;10682;50.874;3.656;2023-09-08T08:28:05;16.02;;;7.82;;
21046;SDS011;10682;50.874;3.656;2023-09-08T08:30:32;16.50;;;7.30;;
21046;SDS011;10682;50.874;3.656;2023-09-08T08:32:59;12.00;;;7.60;;
21046;SDS011;10682;50.874;3.656;2023-09-08T08:35:27;12.00;;;7.50;;
21046;SDS011;10682;50.874;3.656;2023-09-08T08:37:54;17.52;;;7.35;;
21046;SDS011;10682;50.874;3.656;2023-09-08T08:40:25;11.32;;;7.60;;
21046;SDS011;10682;50.874;3.656;2023-09-08T08:42:57;14.88;;;7.95;;
21046;SDS011;10682;50.874;3.656;2023-09-08T08:45:28;15.95;;;7.47;;
21046;SDS011;10682;50.874;3.656;2023-09-08T08:47:57;13.15;;;7.30;;
21046;SDS011;10682;50.874;3.656;2023-09-08T08:50:25;13.82;;;7.63;;
21046;SDS011;10682;50.874;3.656;2023-09-08T08:52:53;15.43;;;7.63;;
21046;SDS011;10682;50.874;3.656;2023-09-08T08:55:20;15.98;;;8.35;;
21046;SDS011;10682;50.874;3.656;2023-09-08T08:57:50;14.48;;;8.30;;
21046;SDS011;10682;50.874;3.656;2023-09-08T09:00:19;17.13;;;7.90;;
21046;SDS011;10682;50.874;3.656;2023-09-08T09:02:46;14.18;;;7.97;;
21046;SDS011;10682;50.874;3.656;2023-09-08T09:05:37;14.60;;;8.13;;
21046;SDS011;10682;50.874;3.656;2023-09-08T09:08:05;17.27;;;8.10;;
21046;SDS011;10682;50.874;3.656;2023-09-08T09:10:33;13.18;;;8.30;;
21046;SDS011;10682;50.874;3.656;2023-09-08T09:13:03;14.65;;;8.38;;
21046;SDS011;10682;50.874;3.656;2023-09-08T09:15:31;10.45;;;7.65;;
21046;SDS011;10682;50.874;3.656;2023-09-08T09:18:05;13.85;;;8.18;;
21046;SDS011;10682;50.874;3.656;2023-09-08T09:20:34;15.75;;;8.90;;
21046;SDS011;10682;50.874;3.656;2023-09-08T09:23:01;17.92;;;8.80;;
21046;SDS011;10682;50.874;3.656;2023-09-08T09:25:30;13.98;;;7.88;;
21046;SDS011;10682;50.874;3.656;2023-09-08T09:27:59;14.65;;;7.68;;
21046;SDS011;10682;50.874;3.656;2023-09-08T09:30:45;19.00;;;7.85;;
21046;SDS011;10682;50.874;3.656;2023-09-08T09:33:24;9.90;;;6.95;;
21046;SDS011;10682;50.874;3.656;2023-09-08T09:35:53;13.30;;;7.97;;
21046;SDS011;10682;50.874;3.656;2023-09-08T09:38:22;12.43;;;7.63;;
21046;SDS011;10682;50.874;3.656;2023-09-08T09:40:53;14.95;;;7.50;;
21046;SDS011;10682;50.874;3.656;2023-09-08T09:43:21;12.85;;;7.13;;
21046;SDS011;10682;50.874;3.656;2023-09-08T09:45:49;18.08;;;8.27;;
21046;SDS011;10682;50.874;3.656;2023-09-08T09:48:17;13.45;;;7.50;;
21046;SDS011;10682;50.874;3.656;2023-09-08T09:50:48;11.98;;;7.20;;
21046;SDS011;10682;50.874;3.656;2023-09-08T09:53:16;16.33;;;7.43;;
21046;SDS011;10682;50.874;3.656;2023-09-08T09:55:45;12.35;;;7.53;;
21046;SDS011;10682;50.874;3.656;2023-09-08T09:58:13;15.07;;;7.28;;
21046;SDS011;10682;50.874;3.656;2023-09-08T10:00:43;16.60;;;7.53;;
21046;SDS011;10682;50.874;3.656;2023-09-08T10:03:15;12.93;;;7.65;;
21046;SDS011;10682;50.874;3.656;2023-09-08T10:05:43;16.13;;;7.00;;
21046;SDS011;10682;50.874;3.656;2023-09-08T10:08:13;13.43;;;6.88;;
21046;SDS011;10682;50.874;3.656;2023-09-08T10:10:40;11.82;;;7.10;;
21046;SDS011;10682;50.874;3.656;2023-09-08T10:13:12;14.23;;;7.57;;
21046;SDS011;10682;50.874;3.656;2023-09-08T10:16:03;13.55;;;7.50;;
21046;SDS011;10682;50.874;3.656;2023-09-08T10:18:35;16.63;;;7.22;;
21046;SDS011;10682;50.874;3.656;2023-09-08T10:21:04;13.93;;;7.57;;
21046;SDS011;10682;50.874;3.656;2023-09-08T10:26:05;13.63;;;6.60;;
21046;SDS011;10682;50.874;3.656;2023-09-08T10:28:37;13.98;;;6.95;;
21046;SDS011;10682;50.874;3.656;2023-09-08T10:31:05;10.13;;;6.70;;
21046;SDS011;10682;50.874;3.656;2023-09-08T10:33:40;16.60;;;7.78;;
21046;SDS011;10682;50.874;3.656;2023-09-08T10:36:09;12.75;;;6.82;;
21046;SDS011;10682;50.874;3.656;2023-09-08T10:38:38;14.65;;;7.22;;
21046;SDS011;10682;50.874;3.656;2023-09-08T10:44:03;17.70;;;7.32;;
21046;SDS011;10682;50.874;3.656;2023-09-08T10:46:43;16.17;;;6.85;;
21046;SDS011;10682;50.874;3.656;2023-09-08T10:49:17;12.98;;;7.25;;
21046;SDS011;10682;50.874;3.656;2023-09-08T10:54:50;17.95;;;6.88;;
21046;SDS011;10682;50.874;3.656;2023-09-08T10:57:34;16.42;;;6.47;;
21046;SDS011;10682;50.874;3.656;2023-09-08T11:00:06;18.13;;;6.85;;
21046;SDS011;10682;50.874;3.656;2023-09-08T11:02:49;12.45;;;6.78;;
21046;SDS011;10682;50.874;3.656;2023-09-08T11:05:33;14.68;;;6.63;;
21046;SDS011;10682;50.874;3.656;2023-09-08T11:08:07;12.20;;;6.18;;
21046;SDS011;10682;50.874;3.656;2023-09-08T11:10:49;13.38;;;6.57;;
21046;SDS011;10682;50.874;3.656;2023-09-08T11:13:26;12.38;;;6.10;;
21046;SDS011;10682;50.874;3.656;2023-09-08T11:16:15;8.60;;;5.53;;
21046;SDS011;10682;50.874;3.656;2023-09-08T11:19:07;18.58;;;6.35;;
21046;SDS011;10682;50.874;3.656;2023-09-08T11:21:53;10.88;;;5.15;;
21046;SDS011;10682;50.874;3.656;2023-09-08T11:27:28;12.52;;;5.80;;
21046;SDS011;10682;50.874;3.656;2023-09-08T11:30:24;15.52;;;5.32;;
21046;SDS011;10682;50.874;3.656;2023-09-08T11:33:32;9.60;;;5.32;;
21046;SDS011;10682;50.874;3.656;2023-09-08T11:36:15;13.98;;;6.07;;
21046;SDS011;10682;50.874;3.656;2023-09-08T11:39:04;14.95;;;5.65;;
21046;SDS011;10682;50.874;3.656;2023-09-08T11:41:54;11.05;;;6.38;;
21046;SDS011;10682;50.874;3.656;2023-09-08T11:44:40;16.73;;;6.65;;
21046;SDS011;10682;50.874;3.656;2023-09-08T11:47:10;19.67;;;6.80;;
21046;SDS011;10682;50.874;3.656;2023-09-08T11:49:57;14.13;;;6.35;;
21046;SDS011;10682;50.874;3.656;2023-09-08T11:52:26;14.30;;;6.40;;
21046;SDS011;10682;50.874;3.656;2023-09-08T11:55:34;17.10;;;7.25;;
21046;SDS011;10682;50.874;3.656;2023-09-08T11:58:06;16.95;;;6.45;;
21046;SDS011;10682;50.874;3.656;2023-09-08T12:00:38;17.33;;;7.22;;
21046;SDS011;10682;50.874;3.656;2023-09-08T12:03:15;12.18;;;7.18;;
21046;SDS011;10682;50.874;3.656;2023-09-08T12:08:33;13.25;;;7.20;;
21046;SDS011;10682;50.874;3.656;2023-09-08T12:11:09;14.50;;;7.28;;
21046;SDS011;10682;50.874;3.656;2023-09-08T12:13:38;14.85;;;7.03;;
21046;SDS011;10682;50.874;3.656;2023-09-08T12:16:38;10.40;;;6.90;;
21046;SDS011;10682;50.874;3.656;2023-09-08T12:19:48;11.55;;;6.60;;
21046;SDS011;10682;50.874;3.656;2023-09-08T12:22:18;14.40;;;7.88;;
21046;SDS011;10682;50.874;3.656;2023-09-08T12:27:29;12.50;;;7.55;;
21046;SDS011;10682;50.874;3.656;2023-09-08T12:30:02;12.93;;;6.97;;
21046;SDS011;10682;50.874;3.656;2023-09-08T12:32:35;12.43;;;7.65;;
21046;SDS011;10682;50.874;3.656;2023-09-08T12:35:03;15.75;;;8.45;;
21046;SDS011;10682;50.874;3.656;2023-09-08T12:37:32;82.05;;;11.20;;
21046;SDS011;10682;50.874;3.656;2023-09-08T12:40:00;14.30;;;7.43;;
21046;SDS011;10682;50.874;3.656;2023-09-08T12:42:28;18.30;;;7.57;;
21046;SDS011;10682;50.874;3.656;2023-09-08T12:44:58;16.95;;;7.70;;
21046;SDS011;10682;50.874;3.656;2023-09-08T12:47:26;68.97;;;10.90;;
21046;SDS011;10682;50.874;3.656;2023-09-08T12:49:53;18.25;;;8.25;;
21046;SDS011;10682;50.874;3.656;2023-09-08T12:52:22;17.90;;;8.48;;
21046;SDS011;10682;50.874;3.656;2023-09-08T12:54:49;20.02;;;8.43;;
21046;SDS011;10682;50.874;3.656;2023-09-08T12:57:16;15.95;;;8.02;;
21046;SDS011;10682;50.874;3.656;2023-09-08T12:59:43;13.60;;;6.78;;
21046;SDS011;10682;50.874;3.656;2023-09-08T13:02:10;15.80;;;5.65;;
21046;SDS011;10682;50.874;3.656;2023-09-08T13:04:38;9.32;;;5.00;;
21046;SDS011;10682;50.874;3.656;2023-09-08T13:07:15;8.30;;;4.65;;
21046;SDS011;10682;50.874;3.656;2023-09-08T13:09:43;10.52;;;5.13;;
21046;SDS011;10682;50.874;3.656;2023-09-08T13:12:11;14.07;;;4.72;;
21046;SDS011;10682;50.874;3.656;2023-09-08T13:14:40;12.27;;;4.43;;
21046;SDS011;10682;50.874;3.656;2023-09-08T13:17:07;12.80;;;4.00;;
21046;SDS011;10682;50.874;3.656;2023-09-08T13:19:35;7.65;;;4.07;;
21046;SDS011;10682;50.874;3.656;2023-09-08T13:22:07;9.02;;;3.88;;
21046;SDS011;10682;50.874;3.656;2023-09-08T13:24:35;7.18;;;4.25;;
21046;SDS011;10682;50.874;3.656;2023-09-08T13:27:03;10.57;;;4.22;;
21046;SDS011;10682;50.874;3.656;2023-09-08T13:29:34;14.50;;;3.80;;
21046;SDS011;10682;50.874;3.656;2023-09-08T13:32:01;14.77;;;4.63;;
21046;SDS011;10682;50.874;3.656;2023-09-08T13:34:28;12.50;;;4.03;;
21046;SDS011;10682;50.874;3.656;2023-09-08T13:36:56;17.00;;;4.28;;
21046;SDS011;10682;50.874;3.656;2023-09-08T13:39:24;15.27;;;4.70;;
21046;SDS011;10682;50.874;3.656;2023-09-08T13:41:52;11.43;;;4.95;;
21046;SDS011;10682;50.874;3.656;2023-09-08T13:44:26;18.33;;;4.80;;
21046;SDS011;10682;50.874;3.656;2023-09-08T13:46:54;15.18;;;4.65;;
21046;SDS011;10682;50.874;3.656;2023-09-08T13:49:22;11.48;;;4.78;;
21046;SDS011;10682;50.874;3.656;2023-09-08T13:51:52;12.85;;;4.95;;
21046;SDS011;10682;50.874;3.656;2023-09-08T13:54:22;10.55;;;4.90;;
21046;SDS011;10682;50.874;3.656;2023-09-08T13:56:58;12.25;;;5.28;;
21046;SDS011;10682;50.874;3.656;2023-09-08T13:59:28;13.73;;;4.65;;
21046;SDS011;10682;50.874;3.656;2023-09-08T14:02:02;9.55;;;4.93;;
21046;SDS011;10682;50.874;3.656;2023-09-08T14:04:35;11.35;;;4.80;;
21046;SDS011;10682;50.874;3.656;2023-09-08T14:07:09;10.00;;;4.95;;
21046;SDS011;10682;50.874;3.656;2023-09-08T14:09:41;12.15;;;5.10;;
21046;SDS011;10682;50.874;3.656;2023-09-08T14:12:15;13.00;;;5.30;;
21046;SDS011;10682;50.874;3.656;2023-09-08T14:14:45;9.55;;;5.30;;
21046;SDS011;10682;50.874;3.656;2023-09-08T14:17:12;11.15;;;5.40;;
21046;SDS011;10682;50.874;3.656;2023-09-08T14:19:39;11.40;;;5.32;;
21046;SDS011;10682;50.874;3.656;2023-09-08T14:22:06;15.40;;;5.60;;
21046;SDS011;10682;50.874;3.656;2023-09-08T14:24:34;14.93;;;5.32;;
21046;SDS011;10682;50.874;3.656;2023-09-08T14:27:01;9.40;;;5.30;;
21046;SDS011;10682;50.874;3.656;2023-09-08T14:29:30;15.50;;;6.30;;
21046;SDS011;10682;50.874;3.656;2023-09-08T14:32:00;11.13;;;5.53;;
21046;SDS011;10682;50.874;3.656;2023-09-08T14:34:30;19.42;;;5.53;;
21046;SDS011;10682;50.874;3.656;2023-09-08T14:36:57;9.55;;;5.50;;
21046;SDS011;10682;50.874;3.656;2023-09-08T14:39:26;13.55;;;5.47;;
21046;SDS011;10682;50.874;3.656;2023-09-08T14:41:53;15.90;;;5.82;;
21046;SDS011;10682;50.874;3.656;2023-09-08T14:44:21;18.88;;;5.97;;
21046;SDS011;10682;50.874;3.656;2023-09-08T14:46:50;15.38;;;6.57;;
21046;SDS011;10682;50.874;3.656;2023-09-08T14:49:18;10.82;;;5.20;;
21046;SDS011;10682;50.874;3.656;2023-09-08T14:51:45;12.50;;;5.43;;
21046;SDS011;10682;50.874;3.656;2023-09-08T14:54:13;13.32;;;5.35;;
21046;SDS011;10682;50.874;3.656;2023-09-08T14:56:40;11.45;;;5.22;;
21046;SDS011;10682;50.874;3.656;2023-09-08T14:59:08;14.10;;;5.72;;
21046;SDS011;10682;50.874;3.656;2023-09-08T15:01:35;9.43;;;5.32;;
21046;SDS011;10682;50.874;3.656;2023-09-08T15:04:05;14.05;;;5.75;;
21046;SDS011;10682;50.874;3.656;2023-09-08T15:06:32;11.48;;;5.80;;
21046;SDS011;10682;50.874;3.656;2023-09-08T15:08:59;15.00;;;6.95;;